Observations for Trim Market St
| Time | AQI | Temp °C | Hum % | Pres Pa | CO μg/m³ | H₂S μg/m³ | NO μg/m³ | NO₂ μg/m³ | O₃ μg/m³ | SO₂ μg/m³ | PM1 μg/m³ | PM2.5 μg/m³ | PM10 μg/m³ |
|---|---|---|---|---|---|---|---|---|---|---|---|---|---|
| Monday 24 August 2026 | |||||||||||||
| 00:40 | 2 | 11.3 | 71 | 55,607 | 0.47 | 0 | 4.39 | 22.65 | 22.76 | 0 | 1.43 | 3.48 | 6.29 |
| 00:39 | 2 | 11.3 | 71 | 55,680 | 0.48 | 0 | 4.15 | 32.14 | 10.74 | 0 | 1.43 | 3 | 5.05 |
| 00:38 | 2 | 11.3 | 71 | 55,752 | 0.46 | 0 | 3.45 | 19.75 | 24.86 | 0 | 2.14 | 4.46 | 6.91 |
| 00:37 | 2 | 11.3 | 71 | 55,809 | 0.46 | 0 | 3.67 | 17.36 | 27.32 | 0 | 2.14 | 3.97 | 6.29 |
| 00:36 | 2 | 11.3 | 71 | 55,861 | 0.46 | 0 | 3.69 | 17.68 | 26.72 | 0 | 1.43 | 3.49 | 5.67 |
| 00:35 | 2 | 11.3 | 71 | 55,907 | 0.46 | 0 | 3.63 | 13.97 | 31.08 | 0 | 2.14 | 3.5 | 5.67 |
| 00:34 | 2 | 11.3 | 71 | 55,941 | 0.45 | 0 | 3.6 | 13.97 | 30.97 | 0 | 2.14 | 3.98 | 6.29 |
| 00:33 | 2 | 11.4 | 71 | 55,963 | 0.45 | 0 | 3.87 | 16.29 | 29.19 | 0 | 1.43 | 3.01 | 6.91 |
| 00:32 | 2 | 11.4 | 71 | 55,993 | 0.45 | 0 | 3.76 | 15.57 | 29.69 | 0 | 2.14 | 3.5 | 6.91 |
| 00:31 | 2 | 11.4 | 71 | 56,020 | 0.46 | 0 | 4.12 | 20.9 | 23.99 | 0 | 1.43 | 3.02 | 5.04 |
| 00:30 | 2 | 11.4 | 71 | 56,046 | 0.45 | 0 | 3.54 | 13.6 | 32.13 | 0 | 1.43 | 3.51 | 5.66 |
| 00:29 | 2 | 11.4 | 71 | 56,068 | 0.46 | 0 | 3.79 | 14.91 | 30.5 | 0 | 1.43 | 3.51 | 6.28 |
| 00:28 | 2 | 11.5 | 71 | 56,091 | 0.48 | 0 | 3.41 | 14.21 | 32.27 | 0 | 0.71 | 2.54 | 4.41 |
| 00:25 | 2 | 11.5 | 70 | 56,132 | 0.45 | 0 | 3.36 | 12.56 | 34.22 | 0 | 2.14 | 4.49 | 8.15 |
| 00:24 | 2 | 11.5 | 70 | 56,152 | 0.46 | 0 | 3 | 12.56 | 34.4 | 0 | 2.14 | 3.52 | 5.66 |
| 00:23 | 2 | 11.5 | 70 | 56,176 | 0.45 | 0 | 3.41 | 12.84 | 34.03 | 0 | 2.14 | 3.04 | 5.03 |
| 00:15 | 2 | 11.7 | 70 | 56,397 | 0.47 | 0 | 2.94 | 13.29 | 34.76 | 0 | 1.43 | 3.55 | 5.65 |
| 00:11 | 2 | 11.7 | 70 | 56,478 | 0.42 | 0 | 3.42 | 12 | 36.47 | 0 | 2.14 | 3.08 | 5.01 |
| 00:08 | 2 | 11.8 | 69 | 56,560 | 0.42 | 0 | 3.38 | 12.41 | 36.21 | 0 | 1.43 | 3.08 | 5.01 |
| 00:07 | 2 | 11.8 | 69 | 56,585 | 0.42 | 0 | 2.94 | 14.06 | 34.28 | 0 | 1.43 | 3.09 | 5.64 |